createdAt,value
2019-04-16T00:00:05.557Z,6.50
2019-04-16T00:01:05.685Z,6.44
2019-04-16T00:02:05.201Z,6.38
2019-04-16T00:03:05.776Z,6.50
2019-04-16T00:04:05.203Z,6.56
2019-04-16T00:05:05.296Z,6.50
2019-04-16T00:06:05.755Z,6.44
2019-04-16T00:07:05.220Z,6.38
2019-04-16T00:08:08.351Z,6.31
2019-04-16T00:09:06.189Z,6.25
2019-04-16T00:10:05.049Z,6.12
2019-04-16T00:11:05.583Z,6.06
2019-04-16T00:12:05.773Z,6.06
2019-04-16T00:13:05.933Z,6.00
2019-04-16T00:14:05.279Z,5.94
2019-04-16T00:15:05.615Z,5.94
2019-04-16T00:16:05.769Z,5.94
2019-04-16T00:17:05.949Z,5.88
2019-04-16T00:18:05.945Z,6.00
2019-04-16T00:19:06.485Z,6.25
2019-04-16T00:20:06.795Z,6.12
2019-04-16T00:21:06.387Z,6.12
2019-04-16T00:22:05.852Z,6.06
2019-04-16T00:23:06.018Z,5.94
2019-04-16T00:24:05.445Z,5.88
2019-04-16T00:25:05.530Z,5.88
2019-04-16T00:26:05.183Z,5.88
2019-04-16T00:27:05.270Z,5.88
2019-04-16T00:28:05.543Z,5.88
2019-04-16T00:29:05.553Z,5.81
2019-04-16T00:30:05.809Z,5.75
2019-04-16T00:31:05.589Z,5.75
2019-04-16T00:32:09.036Z,5.75
2019-04-16T00:33:07.478Z,5.69
2019-04-16T00:34:05.843Z,5.62
2019-04-16T00:35:05.852Z,5.62
2019-04-16T00:36:05.925Z,5.62
2019-04-16T00:37:05.232Z,5.69
2019-04-16T00:38:05.277Z,5.62
2019-04-16T00:39:05.361Z,5.94
2019-04-16T00:40:05.603Z,5.94
2019-04-16T00:41:05.781Z,6.00
2019-04-16T00:42:05.928Z,6.12
2019-04-16T00:43:05.999Z,6.19
2019-04-16T00:44:05.453Z,6.25
2019-04-16T00:45:05.442Z,6.06
2019-04-16T00:46:08.153Z,6.00
2019-04-16T00:47:05.311Z,5.94
2019-04-16T00:48:05.423Z,5.88
2019-04-16T00:49:05.532Z,5.75
2019-04-16T00:50:05.228Z,6.06
2019-04-16T00:51:05.938Z,6.06
2019-04-16T00:52:06.644Z,6.00
2019-04-16T00:53:08.040Z,5.94
2019-04-16T00:54:09.646Z,5.94
2019-04-16T00:55:05.527Z,5.81
2019-04-16T00:56:05.214Z,5.81
2019-04-16T00:57:05.448Z,5.81
2019-04-16T00:58:06.072Z,5.81
2019-04-16T00:59:05.619Z,5.88
2019-04-16T01:00:05.765Z,5.81
2019-04-16T01:01:05.925Z,5.69
2019-04-16T01:02:05.371Z,5.88
2019-04-16T01:03:05.146Z,5.81
2019-04-16T01:04:05.925Z,5.81
2019-04-16T01:05:05.526Z,5.69
2019-04-16T01:06:07.746Z,5.56
2019-04-16T01:07:05.682Z,5.56
2019-04-16T01:08:05.847Z,5.44
2019-04-16T01:09:05.468Z,5.38
2019-04-16T01:10:05.448Z,5.31
2019-04-16T01:11:05.931Z,5.19
2019-04-16T01:12:05.540Z,5.12
2019-04-16T01:13:05.531Z,5.06
2019-04-16T01:14:05.613Z,5.00
2019-04-16T01:15:05.271Z,5.06
2019-04-16T01:16:05.843Z,5.12
2019-04-16T01:17:05.732Z,5.25
2019-04-16T01:18:07.492Z,5.25
2019-04-16T01:19:09.445Z,5.25
2019-04-16T01:20:05.288Z,5.38
2019-04-16T01:21:05.526Z,5.44
2019-04-16T01:22:05.686Z,5.44
2019-04-16T01:23:05.522Z,5.31
2019-04-16T01:24:05.764Z,5.31
2019-04-16T01:25:05.277Z,5.25
2019-04-16T01:26:05.279Z,5.25
2019-04-16T01:27:05.739Z,5.12
2019-04-16T01:28:05.948Z,5.06
2019-04-16T01:29:05.612Z,4.94
2019-04-16T01:30:06.437Z,4.94
2019-04-16T01:31:07.876Z,4.94
2019-04-16T01:32:09.713Z,4.94
2019-04-16T01:33:05.298Z,5.00
2019-04-16T01:34:05.451Z,4.88
2019-04-16T01:35:05.201Z,4.81
2019-04-16T01:36:05.206Z,4.75
2019-04-16T01:37:05.600Z,4.62
2019-04-16T01:38:05.613Z,4.69
2019-04-16T01:39:15.520Z,4.62
2019-04-16T01:40:05.610Z,4.62
2019-04-16T01:41:06.045Z,4.75
2019-04-16T01:42:05.127Z,4.69
2019-04-16T01:43:05.591Z,4.69
2019-04-16T01:44:05.616Z,4.81
2019-04-16T01:45:05.760Z,4.62
2019-04-16T01:46:05.848Z,4.56
2019-04-16T01:47:05.831Z,4.50
2019-04-16T01:48:07.815Z,4.44
2019-04-16T01:49:09.653Z,4.50
2019-04-16T01:50:05.610Z,4.50
2019-04-16T01:51:06.639Z,4.69
2019-04-16T01:52:05.546Z,4.75
2019-04-16T01:53:05.200Z,4.75
2019-04-16T01:54:05.744Z,4.94
2019-04-16T01:55:05.855Z,4.81
2019-04-16T01:56:05.294Z,4.69
2019-04-16T01:57:05.917Z,4.81
2019-04-16T01:58:05.123Z,4.62
2019-04-16T01:59:05.937Z,4.62
2019-04-16T02:00:07.780Z,4.62
2019-04-16T02:01:08.003Z,4.56
2019-04-16T02:02:05.353Z,4.56
2019-04-16T02:03:06.048Z,4.62
2019-04-16T02:04:05.990Z,4.69
2019-04-16T02:05:05.774Z,4.62
2019-04-16T02:06:05.108Z,4.56
2019-04-16T02:07:05.688Z,4.44
2019-04-16T02:08:05.753Z,4.44
2019-04-16T02:09:05.379Z,4.38
2019-04-16T02:10:07.232Z,4.31
2019-04-16T02:11:09.523Z,4.25
2019-04-16T02:12:05.426Z,4.19
2019-04-16T02:13:05.308Z,4.25
2019-04-16T02:14:05.352Z,4.12
2019-04-16T02:15:05.544Z,4.06
2019-04-16T02:16:05.534Z,3.94
2019-04-16T02:17:05.696Z,4.06
2019-04-16T02:18:06.065Z,4.12
2019-04-16T02:19:05.609Z,4.12
2019-04-16T02:20:06.909Z,4.19
2019-04-16T02:21:09.481Z,4.12
2019-04-16T02:22:05.281Z,4.12
2019-04-16T02:23:05.477Z,4.19
2019-04-16T02:24:05.611Z,4.25
2019-04-16T02:25:06.200Z,4.31
2019-04-16T02:26:05.117Z,4.25
2019-04-16T02:27:05.216Z,4.12
2019-04-16T02:28:05.687Z,4.06
2019-04-16T02:29:05.638Z,4.00
2019-04-16T02:30:06.616Z,3.94
2019-04-16T02:31:12.757Z,4.00
2019-04-16T02:32:05.570Z,3.94
2019-04-16T02:33:05.773Z,3.88
2019-04-16T02:34:05.760Z,3.94
2019-04-16T02:35:05.359Z,3.94
2019-04-16T02:36:05.674Z,4.00
2019-04-16T02:37:05.851Z,4.06
2019-04-16T02:38:10.345Z,4.06
2019-04-16T02:39:05.957Z,4.06
2019-04-16T02:40:05.355Z,4.06
2019-04-16T02:41:05.684Z,3.94
2019-04-16T02:42:05.551Z,4.00
2019-04-16T02:43:07.317Z,3.94
2019-04-16T02:44:06.011Z,3.81
2019-04-16T02:45:05.047Z,3.88
2019-04-16T02:46:05.997Z,3.81
2019-04-16T02:47:07.185Z,3.75
2019-04-16T02:48:05.390Z,3.75
2019-04-16T02:49:05.599Z,4.00
2019-04-16T02:50:05.845Z,3.94
2019-04-16T02:51:07.525Z,4.06
2019-04-16T02:52:06.751Z,3.94
2019-04-16T02:53:06.245Z,3.88
2019-04-16T02:54:05.478Z,3.75
2019-04-16T02:55:08.927Z,3.81
2019-04-16T02:56:05.858Z,3.81
2019-04-16T02:57:05.151Z,3.69
2019-04-16T02:58:05.819Z,3.62
2019-04-16T02:59:10.347Z,3.62
2019-04-16T03:00:05.389Z,3.62
2019-04-16T03:01:05.552Z,3.62
2019-04-16T03:02:05.997Z,3.62
2019-04-16T03:03:06.029Z,3.69
2019-04-16T03:04:05.496Z,3.62
2019-04-16T03:05:06.092Z,3.56
2019-04-16T03:06:05.442Z,3.50
2019-04-16T03:07:05.846Z,3.56
2019-04-16T03:08:05.914Z,3.50
2019-04-16T03:09:08.502Z,3.75
2019-04-16T03:10:05.029Z,3.75
2019-04-16T03:11:05.132Z,3.81
2019-04-16T03:12:05.306Z,3.81
2019-04-16T03:13:05.341Z,3.94
2019-04-16T03:14:05.678Z,3.94
2019-04-16T03:15:05.775Z,3.94
2019-04-16T03:16:07.086Z,3.94
2019-04-16T03:17:06.758Z,3.94
2019-04-16T03:18:05.914Z,3.94
2019-04-16T03:19:05.464Z,3.94
2019-04-16T03:20:05.605Z,3.88
2019-04-16T03:21:05.215Z,3.81
2019-04-16T03:22:05.277Z,3.75
2019-04-16T03:23:06.749Z,3.81
2019-04-16T03:24:09.039Z,3.81
2019-04-16T03:25:05.133Z,3.81
2019-04-16T03:26:05.661Z,3.81
2019-04-16T03:27:05.571Z,3.81
2019-04-16T03:28:05.042Z,3.62
2019-04-16T03:29:05.297Z,3.62
2019-04-16T03:30:06.259Z,3.69
2019-04-16T03:31:08.617Z,3.69
2019-04-16T03:32:06.167Z,3.62
2019-04-16T03:33:12.260Z,3.62
2019-04-16T03:34:05.687Z,3.88
2019-04-16T03:35:06.017Z,3.81
2019-04-16T03:36:05.567Z,3.81
2019-04-16T03:37:05.770Z,3.81
2019-04-16T03:38:06.242Z,3.81
2019-04-16T03:39:11.931Z,3.94
2019-04-16T03:40:15.696Z,4.25
2019-04-16T03:41:05.929Z,4.25
2019-04-16T03:42:05.276Z,4.12
2019-04-16T03:43:05.553Z,4.00
2019-04-16T03:44:05.164Z,3.94
2019-04-16T03:45:08.896Z,3.94
2019-04-16T03:46:05.511Z,3.94
2019-04-16T03:47:05.222Z,3.94
2019-04-16T03:48:05.902Z,3.75
2019-04-16T03:49:05.689Z,3.81
2019-04-16T03:50:05.231Z,3.75
2019-04-16T03:51:05.360Z,3.88
2019-04-16T03:52:08.352Z,3.94
2019-04-16T03:53:05.195Z,3.88
2019-04-16T03:54:05.914Z,3.81
2019-04-16T03:55:05.769Z,3.69
2019-04-16T03:56:05.215Z,3.62
2019-04-16T03:57:05.453Z,3.62
2019-04-16T03:58:07.163Z,3.69
2019-04-16T03:59:10.451Z,3.88
2019-04-16T04:00:05.528Z,3.81
2019-04-16T04:01:05.620Z,3.69
2019-04-16T04:02:05.834Z,3.62
2019-04-16T04:03:06.199Z,3.56
2019-04-16T04:04:05.135Z,3.50
2019-04-16T04:05:06.633Z,3.44
2019-04-16T04:06:06.614Z,3.56
2019-04-16T04:07:05.643Z,3.62
2019-04-16T04:08:05.594Z,3.62
2019-04-16T04:09:05.616Z,3.56
2019-04-16T04:10:05.994Z,3.56
2019-04-16T04:11:08.831Z,3.56
2019-04-16T04:12:06.114Z,3.50
2019-04-16T04:13:05.832Z,3.50
2019-04-16T04:14:05.448Z,3.69
2019-04-16T04:15:05.526Z,3.75
2019-04-16T04:16:05.238Z,3.56
2019-04-16T04:17:06.756Z,3.56
2019-04-16T04:18:07.603Z,3.56
2019-04-16T04:19:06.058Z,3.56
2019-04-16T04:20:05.214Z,3.50
2019-04-16T04:21:05.701Z,3.50
2019-04-16T04:22:05.128Z,3.69
2019-04-16T04:23:05.617Z,3.62
2019-04-16T04:24:05.702Z,3.81
2019-04-16T04:25:06.682Z,3.75
2019-04-16T04:26:08.487Z,3.69
2019-04-16T04:27:05.777Z,3.75
2019-04-16T04:28:05.134Z,3.88
2019-04-16T04:29:06.227Z,3.81
2019-04-16T04:30:06.080Z,3.81
2019-04-16T04:31:05.506Z,3.81
2019-04-16T04:32:05.764Z,3.81
2019-04-16T04:33:08.122Z,4.06
2019-04-16T04:34:05.605Z,4.19
2019-04-16T04:35:05.872Z,4.12
2019-04-16T04:36:05.850Z,4.06
2019-04-16T04:37:06.041Z,4.19
2019-04-16T04:38:05.857Z,4.56
2019-04-16T04:39:08.927Z,4.69
2019-04-16T04:40:05.123Z,4.69
2019-04-16T04:41:05.532Z,4.50
2019-04-16T04:42:05.445Z,4.38
2019-04-16T04:43:05.215Z,4.31
2019-04-16T04:44:05.401Z,4.25
2019-04-16T04:45:08.727Z,4.25
2019-04-16T04:46:05.464Z,4.25
2019-04-16T04:47:05.465Z,4.25
2019-04-16T04:48:05.593Z,4.25
2019-04-16T04:49:05.693Z,4.31
2019-04-16T04:50:05.066Z,4.25
2019-04-16T04:51:07.933Z,4.62
2019-04-16T04:52:05.287Z,4.69
2019-04-16T04:53:05.447Z,4.69
2019-04-16T04:54:05.932Z,4.75
2019-04-16T04:55:05.846Z,4.88
2019-04-16T04:56:05.927Z,5.00
2019-04-16T04:57:05.630Z,5.25
2019-04-16T04:58:05.767Z,5.44
2019-04-16T04:59:06.024Z,5.69
2019-04-16T05:00:08.291Z,5.81
2019-04-16T05:01:05.706Z,6.06
2019-04-16T05:02:05.685Z,6.31
2019-04-16T05:03:05.778Z,6.50
2019-04-16T05:04:05.751Z,6.75
2019-04-16T05:05:06.018Z,7.12
2019-04-16T05:06:05.696Z,7.31
2019-04-16T05:07:05.717Z,7.56
2019-04-16T05:08:05.782Z,7.94
2019-04-16T05:09:05.303Z,8.50
2019-04-16T05:10:07.321Z,9.00
2019-04-16T05:11:05.688Z,9.50
2019-04-16T05:12:07.811Z,9.81
2019-04-16T05:13:05.784Z,10.00
2019-04-16T05:14:06.007Z,10.06
2019-04-16T05:15:05.051Z,10.31
2019-04-16T05:16:07.072Z,10.50
2019-04-16T05:17:06.399Z,10.50
2019-04-16T05:18:06.123Z,11.00
2019-04-16T05:19:05.802Z,11.19
2019-04-16T05:20:05.924Z,11.38
2019-04-16T05:21:06.080Z,11.62
2019-04-16T05:22:05.525Z,11.75
2019-04-16T05:23:06.283Z,12.19
2019-04-16T05:24:05.135Z,12.56
2019-04-16T05:25:05.456Z,12.69
2019-04-16T05:26:05.713Z,12.94
2019-04-16T05:27:08.292Z,13.25
2019-04-16T05:28:05.608Z,13.50
2019-04-16T05:29:05.773Z,13.81
2019-04-16T05:30:05.439Z,14.19
2019-04-16T05:31:05.170Z,14.56
2019-04-16T05:32:05.359Z,14.75
2019-04-16T05:33:06.240Z,14.94
2019-04-16T05:34:06.134Z,14.94
2019-04-16T05:35:08.916Z,15.19
2019-04-16T05:36:06.155Z,15.38
2019-04-16T05:37:05.452Z,15.56
2019-04-16T05:38:05.206Z,15.75
2019-04-16T05:39:05.390Z,15.69
2019-04-16T05:40:05.616Z,15.94
2019-04-16T05:41:12.882Z,16.19
2019-04-16T05:42:05.348Z,16.38
2019-04-16T05:43:06.106Z,16.62
2019-04-16T05:44:05.846Z,16.81
2019-04-16T05:45:05.444Z,17.12
2019-04-16T05:46:08.710Z,17.19
2019-04-16T05:47:06.077Z,17.31
2019-04-16T05:48:05.277Z,17.50
2019-04-16T05:49:05.609Z,17.62
2019-04-16T05:50:05.121Z,17.69
2019-04-16T05:51:05.870Z,17.69
2019-04-16T05:52:06.194Z,17.88
2019-04-16T05:53:05.344Z,18.00
2019-04-16T05:54:05.611Z,18.12
2019-04-16T05:55:05.779Z,18.12
2019-04-16T05:56:05.923Z,18.19
2019-04-16T05:57:05.312Z,18.00
2019-04-16T05:58:05.285Z,18.19
2019-04-16T05:59:05.374Z,18.56
2019-04-16T06:00:09.146Z,18.75
2019-04-16T06:01:05.843Z,18.88
2019-04-16T06:02:05.929Z,18.94
2019-04-16T06:03:05.207Z,18.88
2019-04-16T06:04:05.363Z,18.62
2019-04-16T06:05:05.372Z,18.38
2019-04-16T06:06:05.116Z,18.19
2019-04-16T06:07:07.521Z,18.00
2019-04-16T06:08:06.289Z,17.75
2019-04-16T06:09:05.372Z,17.56
2019-04-16T06:10:06.961Z,17.25
2019-04-16T06:11:05.604Z,17.00
2019-04-16T06:12:05.775Z,16.81
2019-04-16T06:13:05.939Z,16.56
2019-04-16T06:14:05.290Z,16.44
2019-04-16T06:15:05.458Z,16.44
2019-04-16T06:16:05.826Z,16.50
2019-04-16T06:17:05.530Z,16.50
2019-04-16T06:18:05.518Z,16.56
2019-04-16T06:19:08.393Z,16.56
2019-04-16T06:20:05.301Z,16.56
2019-04-16T06:21:05.452Z,16.50
2019-04-16T06:22:05.602Z,16.62
2019-04-16T06:23:05.689Z,16.62
2019-04-16T06:24:05.208Z,16.62
2019-04-16T06:25:09.147Z,16.69
2019-04-16T06:26:05.425Z,16.75
2019-04-16T06:27:05.925Z,16.75
2019-04-16T06:28:05.728Z,16.88
2019-04-16T06:29:05.761Z,16.94
2019-04-16T06:30:05.453Z,16.94
2019-04-16T06:31:08.452Z,17.06
2019-04-16T06:32:08.333Z,17.12
2019-04-16T06:33:05.288Z,17.19
2019-04-16T06:34:05.546Z,17.19
2019-04-16T06:35:05.689Z,17.19
2019-04-16T06:36:05.857Z,17.19
2019-04-16T06:37:06.096Z,17.25
2019-04-16T06:38:05.143Z,17.19
2019-04-16T06:39:05.851Z,17.25
2019-04-16T06:40:05.047Z,17.25
2019-04-16T06:41:05.134Z,17.25
2019-04-16T06:42:05.657Z,17.31
2019-04-16T06:43:05.833Z,17.31
2019-04-16T06:44:05.289Z,17.31
2019-04-16T06:45:05.877Z,17.38
2019-04-16T06:46:08.097Z,17.38
2019-04-16T06:47:05.448Z,17.44
2019-04-16T06:48:05.426Z,17.62
2019-04-16T06:49:05.601Z,17.75
2019-04-16T06:50:05.129Z,17.88
2019-04-16T06:51:05.203Z,18.00
2019-04-16T06:52:05.937Z,18.00
2019-04-16T06:53:05.059Z,18.00
2019-04-16T06:54:05.437Z,18.00
2019-04-16T06:55:05.760Z,18.00
2019-04-16T06:56:08.497Z,18.06
2019-04-16T06:57:05.767Z,18.06
2019-04-16T06:58:06.172Z,18.19
2019-04-16T06:59:05.622Z,18.25
2019-04-16T07:00:07.226Z,18.38
2019-04-16T07:01:06.690Z,18.50
2019-04-16T07:02:07.556Z,18.56
2019-04-16T07:03:05.434Z,18.62
2019-04-16T07:04:06.835Z,18.69
2019-04-16T07:05:05.432Z,18.75
2019-04-16T07:06:06.008Z,18.69
2019-04-16T07:07:08.263Z,18.69
2019-04-16T07:08:05.608Z,18.69
2019-04-16T07:09:05.351Z,18.75
2019-04-16T07:10:05.203Z,18.81
2019-04-16T07:11:05.363Z,18.81
2019-04-16T07:12:05.940Z,18.81
2019-04-16T07:13:09.895Z,18.81
2019-04-16T07:14:05.686Z,18.88
2019-04-16T07:15:06.163Z,19.00
2019-04-16T07:16:05.692Z,19.12
2019-04-16T07:17:05.202Z,19.19
2019-04-16T07:18:06.233Z,19.25
2019-04-16T07:19:10.102Z,19.25
2019-04-16T07:20:05.760Z,19.31
2019-04-16T07:21:05.919Z,19.38
2019-04-16T07:22:05.281Z,19.44
2019-04-16T07:23:05.571Z,19.44
2019-04-16T07:24:05.457Z,19.50
2019-04-16T07:25:06.465Z,19.62
2019-04-16T07:26:05.187Z,19.81
2019-04-16T07:27:05.699Z,19.94
2019-04-16T07:28:05.366Z,20.00
2019-04-16T07:29:05.140Z,20.06
2019-04-16T07:30:07.877Z,20.19
2019-04-16T07:31:05.632Z,20.25
2019-04-16T07:32:06.112Z,20.25
2019-04-16T07:33:05.710Z,20.25
2019-04-16T07:34:05.775Z,20.25
2019-04-16T07:35:05.133Z,20.31
2019-04-16T07:36:05.353Z,20.31
2019-04-16T07:37:06.014Z,20.31
2019-04-16T07:38:06.442Z,20.25
2019-04-16T07:39:06.095Z,20.25
2019-04-16T07:40:09.922Z,20.31
2019-04-16T07:41:10.602Z,20.44
2019-04-16T07:42:10.028Z,20.44
2019-04-16T07:43:05.523Z,20.50
2019-04-16T07:44:10.363Z,20.50
2019-04-16T07:45:05.527Z,20.56
2019-04-16T07:46:05.190Z,20.50
2019-04-16T07:47:05.754Z,20.38
2019-04-16T07:48:06.367Z,20.38
2019-04-16T07:49:05.609Z,20.38
2019-04-16T07:50:05.927Z,20.31
2019-04-16T07:51:05.537Z,20.25
2019-04-16T07:52:07.254Z,20.19
2019-04-16T07:53:05.548Z,19.88
2019-04-16T07:54:05.875Z,19.81
2019-04-16T07:55:05.522Z,19.62
2019-04-16T07:56:05.932Z,19.50
2019-04-16T07:57:05.769Z,19.44
2019-04-16T07:58:05.529Z,19.38
2019-04-16T07:59:05.241Z,19.31
2019-04-16T08:00:08.131Z,19.19
2019-04-16T08:01:11.060Z,19.06
2019-04-16T08:02:05.372Z,19.06
2019-04-16T08:03:05.740Z,19.00
2019-04-16T08:04:05.768Z,19.00
2019-04-16T08:05:08.616Z,18.88
2019-04-16T08:06:05.374Z,18.81
2019-04-16T08:07:05.204Z,18.69
2019-04-16T08:08:05.403Z,18.62
2019-04-16T08:09:05.696Z,18.62
2019-04-16T08:10:06.098Z,18.62
2019-04-16T08:11:05.667Z,18.56
2019-04-16T08:12:10.512Z,18.69
2019-04-16T08:13:06.840Z,18.50
2019-04-16T08:14:08.573Z,18.31
2019-04-16T08:15:13.211Z,18.19
2019-04-16T08:16:05.680Z,18.25
2019-04-16T08:17:06.031Z,18.25
2019-04-16T08:18:05.223Z,18.25
2019-04-16T08:19:05.381Z,18.25
2019-04-16T08:20:06.019Z,18.31
2019-04-16T08:21:09.924Z,18.38
2019-04-16T08:22:05.783Z,18.38
2019-04-16T08:23:05.528Z,18.38
2019-04-16T08:24:05.863Z,18.19
2019-04-16T08:25:05.291Z,18.12
2019-04-16T08:26:11.269Z,18.25
2019-04-16T08:27:09.391Z,18.44
2019-04-16T08:28:07.162Z,18.44
2019-04-16T08:29:05.618Z,18.50
2019-04-16T08:30:05.600Z,18.44
2019-04-16T08:31:10.449Z,18.38
2019-04-16T08:32:05.870Z,18.19
2019-04-16T08:33:05.475Z,18.19
2019-04-16T08:34:05.763Z,18.19
2019-04-16T08:35:05.851Z,18.38
2019-04-16T08:36:05.919Z,18.31
2019-04-16T08:37:08.025Z,18.12
2019-04-16T08:38:05.054Z,18.06
2019-04-16T08:39:06.440Z,18.12
2019-04-16T08:40:05.369Z,18.06
2019-04-16T08:41:05.457Z,18.12
2019-04-16T08:42:05.394Z,18.12
2019-04-16T08:43:05.554Z,18.00
2019-04-16T08:44:05.538Z,18.06
2019-04-16T08:45:08.370Z,18.12
2019-04-16T08:46:09.928Z,18.06
2019-04-16T08:47:11.259Z,18.06
2019-04-16T08:48:08.999Z,18.00
2019-04-16T08:49:06.003Z,18.12
2019-04-16T08:50:05.513Z,18.12
2019-04-16T08:51:05.607Z,18.00
2019-04-16T08:52:09.812Z,17.94
2019-04-16T08:53:05.703Z,17.88
2019-04-16T08:54:05.515Z,17.88
2019-04-16T08:55:05.674Z,17.75
2019-04-16T08:56:05.229Z,17.69
2019-04-16T08:57:05.624Z,17.69
2019-04-16T08:58:07.066Z,17.75
2019-04-16T08:59:09.424Z,17.88
2019-04-16T09:00:05.526Z,17.75
2019-04-16T09:01:05.171Z,17.62
2019-04-16T09:02:05.781Z,17.50
2019-04-16T09:03:05.601Z,17.38
2019-04-16T09:04:05.132Z,17.38
2019-04-16T09:05:06.210Z,17.25
2019-04-16T09:06:05.769Z,17.25
2019-04-16T09:07:11.883Z,17.31
2019-04-16T09:08:12.806Z,17.38
2019-04-16T09:09:12.201Z,17.25
2019-04-16T09:10:16.124Z,17.25
2019-04-16T09:11:05.706Z,17.25
2019-04-16T09:12:08.797Z,17.44
2019-04-16T09:13:05.588Z,17.50
2019-04-16T09:14:05.165Z,17.44
2019-04-16T09:15:05.288Z,17.25
2019-04-16T09:16:06.004Z,17.25
2019-04-16T09:17:05.455Z,17.06
2019-04-16T09:18:05.596Z,16.94
2019-04-16T09:19:05.841Z,16.81
2019-04-16T09:20:06.422Z,16.69
2019-04-16T09:21:06.808Z,16.62
2019-04-16T09:22:05.599Z,16.81
2019-04-16T09:23:05.289Z,16.88
2019-04-16T09:24:08.449Z,16.81
2019-04-16T09:25:05.349Z,16.75
2019-04-16T09:26:13.884Z,16.75
2019-04-16T09:27:05.705Z,16.81
2019-04-16T09:28:08.099Z,16.81
2019-04-16T09:29:09.648Z,16.88
2019-04-16T09:30:09.753Z,16.88
2019-04-16T09:31:06.194Z,16.81
2019-04-16T09:32:05.678Z,16.75
2019-04-16T09:33:05.845Z,16.62
2019-04-16T09:34:06.335Z,16.56
2019-04-16T09:35:09.469Z,16.50
2019-04-16T09:36:05.772Z,16.31
2019-04-16T09:37:05.763Z,16.19
2019-04-16T09:38:05.933Z,16.25
2019-04-16T09:39:05.466Z,16.25
2019-04-16T09:40:16.296Z,16.31
2019-04-16T09:41:05.765Z,16.44
2019-04-16T09:42:06.012Z,16.44
2019-04-16T09:43:15.967Z,16.56
2019-04-16T09:44:05.445Z,16.62
2019-04-16T09:45:05.785Z,16.81
2019-04-16T09:46:10.427Z,17.00
2019-04-16T09:47:05.499Z,17.06
2019-04-16T09:48:05.285Z,17.00
2019-04-16T09:49:06.163Z,17.00
2019-04-16T09:50:09.538Z,16.94
2019-04-16T09:51:06.107Z,16.88
2019-04-16T09:52:05.996Z,16.81
2019-04-16T09:53:05.716Z,16.88
2019-04-16T09:54:05.754Z,16.75
2019-04-16T09:55:05.142Z,16.81
2019-04-16T09:56:05.321Z,16.69
2019-04-16T09:57:05.602Z,16.56
2019-04-16T09:58:06.872Z,16.50
2019-04-16T09:59:05.443Z,16.38
2019-04-16T10:00:08.226Z,16.31
2019-04-16T10:01:05.980Z,16.25
2019-04-16T10:02:05.214Z,16.31
2019-04-16T10:03:05.152Z,16.31
2019-04-16T10:04:06.011Z,16.44
2019-04-16T10:05:05.446Z,16.50
2019-04-16T10:06:05.851Z,16.62
2019-04-16T10:07:05.536Z,16.81
2019-04-16T10:08:05.234Z,16.75
2019-04-16T10:09:05.292Z,16.69
2019-04-16T10:10:05.355Z,16.62
2019-04-16T10:11:06.391Z,16.75
2019-04-16T10:12:07.742Z,16.69
2019-04-16T10:13:05.989Z,16.81
2019-04-16T10:14:05.617Z,16.88
2019-04-16T10:15:05.713Z,17.00
2019-04-16T10:16:06.003Z,16.88
2019-04-16T10:17:05.300Z,16.75
2019-04-16T10:18:05.295Z,17.06
2019-04-16T10:19:08.236Z,17.06
2019-04-16T10:20:05.620Z,16.94
2019-04-16T10:21:05.208Z,16.88
2019-04-16T10:22:05.553Z,16.81
2019-04-16T10:23:05.867Z,16.69
2019-04-16T10:24:06.066Z,16.69
2019-04-16T10:25:05.795Z,16.69
2019-04-16T10:26:05.846Z,16.75
2019-04-16T10:27:05.693Z,16.81
2019-04-16T10:28:06.472Z,16.81
2019-04-16T10:29:06.158Z,16.94
2019-04-16T10:30:05.743Z,17.00
2019-04-16T10:31:05.467Z,16.94
2019-04-16T10:32:05.883Z,16.94
2019-04-16T10:33:05.849Z,17.06
2019-04-16T10:34:05.384Z,16.94
2019-04-16T10:35:05.595Z,16.94
2019-04-16T10:36:06.114Z,16.94
2019-04-16T10:37:05.917Z,16.94
2019-04-16T10:38:05.385Z,16.81
2019-04-16T10:39:05.134Z,16.88
2019-04-16T10:40:05.481Z,16.88
2019-04-16T10:41:05.865Z,16.94
2019-04-16T10:42:05.527Z,17.00
2019-04-16T10:43:05.098Z,16.88
2019-04-16T10:44:05.778Z,16.81
2019-04-16T10:45:05.996Z,16.62
2019-04-16T10:46:05.937Z,16.56
2019-04-16T10:47:05.378Z,16.62
2019-04-16T10:48:05.476Z,16.69
2019-04-16T10:49:05.696Z,16.75
2019-04-16T10:50:05.602Z,16.75
2019-04-16T10:51:05.858Z,16.75
2019-04-16T10:52:05.993Z,16.88
2019-04-16T10:53:05.747Z,16.88
2019-04-16T10:54:05.208Z,17.00
2019-04-16T10:55:05.941Z,17.06
2019-04-16T10:56:06.088Z,17.06
2019-04-16T10:57:05.631Z,17.31
2019-04-16T10:58:05.833Z,17.62
2019-04-16T10:59:06.017Z,17.94
2019-04-16T11:00:05.863Z,18.12
2019-04-16T11:01:06.088Z,18.19
2019-04-16T11:02:09.496Z,18.44
2019-04-16T11:03:05.111Z,18.19
2019-04-16T11:04:07.771Z,18.06
2019-04-16T11:05:05.253Z,18.06
2019-04-16T11:06:05.283Z,17.94
2019-04-16T11:07:05.710Z,17.81
2019-04-16T11:08:07.335Z,17.69
2019-04-16T11:09:05.611Z,17.69
2019-04-16T11:10:05.859Z,17.94
2019-04-16T11:11:05.794Z,17.88
2019-04-16T11:12:05.967Z,17.81
2019-04-16T11:13:05.546Z,17.69
2019-04-16T11:14:05.869Z,17.75
2019-04-16T11:15:05.889Z,17.75
2019-04-16T11:16:05.147Z,17.75
2019-04-16T11:17:05.916Z,17.69
2019-04-16T11:18:05.396Z,17.62
2019-04-16T11:19:05.996Z,17.62
2019-04-16T11:20:06.161Z,17.38
2019-04-16T11:21:05.669Z,17.31
2019-04-16T11:22:05.700Z,17.31
2019-04-16T11:23:07.375Z,17.25
2019-04-16T11:24:06.011Z,17.38
2019-04-16T11:25:05.789Z,17.56
2019-04-16T11:26:05.202Z,17.56
2019-04-16T11:27:05.933Z,17.56
2019-04-16T11:28:05.878Z,17.56
2019-04-16T11:29:06.005Z,17.50
2019-04-16T11:30:05.312Z,17.50
2019-04-16T11:31:05.659Z,17.44
2019-04-16T11:32:05.951Z,17.38
2019-04-16T11:33:05.651Z,17.50
2019-04-16T11:34:05.951Z,17.50
2019-04-16T11:35:05.464Z,17.44
2019-04-16T11:36:16.711Z,17.44
2019-04-16T11:37:08.036Z,17.38
2019-04-16T11:38:06.175Z,17.44
2019-04-16T11:39:05.362Z,17.38
2019-04-16T11:40:06.132Z,17.50
2019-04-16T11:41:05.419Z,17.50
2019-04-16T11:42:05.624Z,17.62
2019-04-16T11:43:05.986Z,17.56
2019-04-16T11:44:14.560Z,17.44
2019-04-16T11:45:05.763Z,17.38
2019-04-16T11:46:05.830Z,17.31
2019-04-16T11:47:05.547Z,17.31
2019-04-16T11:48:05.461Z,17.25
2019-04-16T11:49:05.631Z,17.19
2019-04-16T11:50:05.925Z,17.12
2019-04-16T11:51:06.144Z,17.06
2019-04-16T11:52:05.749Z,17.25
2019-04-16T11:53:05.517Z,17.38
2019-04-16T11:54:06.230Z,17.38
2019-04-16T11:55:06.101Z,17.38
2019-04-16T11:56:05.362Z,17.38
2019-04-16T11:57:05.459Z,17.44
2019-04-16T11:58:05.312Z,17.38
2019-04-16T11:59:05.768Z,17.38
2019-04-16T12:00:06.264Z,17.25
2019-04-16T12:01:06.055Z,17.25
2019-04-16T12:02:05.786Z,17.19
2019-04-16T12:03:06.023Z,17.19
2019-04-16T12:04:05.762Z,17.19
2019-04-16T12:05:06.181Z,17.19
2019-04-16T12:06:05.746Z,17.19
2019-04-16T12:07:06.332Z,17.19
2019-04-16T12:08:06.038Z,17.19
2019-04-16T12:09:05.175Z,17.19
2019-04-16T12:10:05.325Z,17.19
2019-04-16T12:11:05.735Z,17.12
2019-04-16T12:12:05.366Z,17.06
2019-04-16T12:13:05.505Z,17.00
2019-04-16T12:14:08.252Z,17.00
2019-04-16T12:15:06.142Z,16.94
2019-04-16T12:16:05.321Z,16.94
2019-04-16T12:17:05.538Z,16.94
2019-04-16T12:18:05.221Z,16.88
2019-04-16T12:19:05.641Z,17.00
2019-04-16T12:20:06.120Z,17.00
2019-04-16T12:21:05.399Z,17.19
2019-04-16T12:22:05.462Z,17.31
2019-04-16T12:23:06.325Z,17.44
2019-04-16T12:24:05.930Z,17.38
2019-04-16T12:25:05.529Z,17.31
2019-04-16T12:26:08.828Z,17.31
2019-04-16T12:27:05.636Z,17.31
2019-04-16T12:28:08.371Z,17.31
2019-04-16T12:29:06.013Z,17.38
2019-04-16T12:30:05.345Z,17.31
2019-04-16T12:31:05.385Z,17.31
2019-04-16T12:32:05.703Z,17.31
2019-04-16T12:33:08.506Z,17.31
2019-04-16T12:34:05.614Z,17.25
2019-04-16T12:35:05.812Z,17.19
2019-04-16T12:36:05.308Z,17.12
2019-04-16T12:37:05.431Z,17.12
2019-04-16T12:38:05.703Z,17.12
2019-04-16T12:39:05.162Z,17.12
2019-04-16T12:40:05.289Z,17.12
2019-04-16T12:41:06.009Z,17.19
2019-04-16T12:42:06.181Z,17.19
2019-04-16T12:43:05.538Z,17.25
2019-04-16T12:44:05.636Z,17.44
2019-04-16T12:45:08.589Z,17.50
2019-04-16T12:46:05.801Z,17.56
2019-04-16T12:47:06.043Z,17.56
2019-04-16T12:48:05.128Z,17.44
2019-04-16T12:49:05.790Z,17.38
2019-04-16T12:50:05.205Z,17.38
2019-04-16T12:51:05.296Z,17.31
2019-04-16T12:52:05.883Z,17.19
2019-04-16T12:53:05.832Z,17.19
2019-04-16T12:54:05.948Z,17.31
2019-04-16T12:55:05.294Z,17.38
2019-04-16T12:56:07.298Z,17.31
2019-04-16T12:57:05.551Z,17.25
2019-04-16T12:58:05.614Z,17.19
2019-04-16T12:59:05.270Z,17.19
2019-04-16T13:00:06.019Z,17.12
2019-04-16T13:01:05.595Z,17.06
2019-04-16T13:02:05.938Z,17.12